Windhoek, Namibia
Current Conditions -  °F | °C
As of 11:00 AM on Thursday 23 Oct 2014 (Local Time) from FYWW Reporting Station
Clear Clear  
Wind Chill: 31°   Ceiling: Unl
Heat Index: 31°   Visibility: 6mi
Dew Point: -15°   Wind: 3mph
Humidity: 4%   Direction: 260°W
Pressure: 30.18"   Gusts: NA
Location:  22.56°S, 17.09°E
Report Text: FYWW 231000Z 26003KT CAVOK 31/M15 Q1022
Loading
Personal Weather Stations






























Interactive Weather Map
Tropical Storm Tracking
New forecast layout! Learn more

10-Day Weather Forecast

Advertisements
Track Severe Weather on mobile